Terminal Aerodrome Forecast
Issued by NWS

Home | Current Version | Previous Version | Text Only | Print | Product List | Glossary On
Versions: 1 2 3 4 5 6 7 8 9 10 11 12 13 14 15 16 17 18 19
000
FTUS41 KBOX 231934 AAA
TAFBED
TAF AMD
KBED 231934Z 2320/2418 02015G25KT 4SM SHRA BR BKN005 OVC012
     FM232130 01014G22KT P6SM OVC012
     FM240400 01012G26KT P6SM OVC008
     FM240600 01011G24KT P6SM OVC003
     FM240700 36011G24KT P6SM OVC008
     FM241300 33008KT P6SM OVC015
     FM241600 32009KT P6SM OVC025=

USA.gov is the U.S. government's official web portal to all federal, state and local government web resources and services.